| time (UTC) | temp C | wind direction | speed KPH | gust KPH | rain 1hr cm | rain 24hr cm | rain mn cm | humidity % | barometer mb |
| 20260906003756 | 25 | 26 | 3.2 | 3.2 | 0.00 | 0.00 | 0.00 | 89 | 1017.6 |
| 20260906003252 | 25 | 3 | 3.2 | 4.8 | 0.00 | 0.00 | 0.00 | 88 | 1017.4 |
| 20260906002747 | 25 | 8 | 8.0 | 11.3 | 0.00 | 0.00 | 0.00 | 88 | 1017.3 |
| 20260906002246 | 25 | 18 | 4.8 | 9.7 | 0.00 | 0.00 | 0.00 | 88 | 1017.3 |
| 20260906001742 | 25 | 2 | 3.2 | 4.8 | 0.00 | 0.00 | 0.00 | 87 | 1017.3 |
| 20260906001237 | 26 | 327 | 1.6 | 3.2 | 0.00 | 0.00 | 0.00 | 86 | 1017.1 |
| 20260906000733 | 26 | 324 | 3.2 | 3.2 | 0.00 | 0.00 | 0.00 | 86 | 1017.1 |
| 20260906000234 | 26 | 22 | 4.8 | 12.9 | 0.00 | 0.00 | 0.00 | 86 | 1017.1 |
| 20260905235733 | 26 | 312 | 1.6 | 3.2 | 0.00 | 0.00 | 0.00 | 87 | 1017.3 |
| 20260905235227 | 26 | 17 | 4.8 | 11.3 | 0.00 | 0.00 | 0.00 | 87 | 1017.0 |
| 20260905234723 | 26 | 329 | 3.2 | 4.8 | 0.00 | 0.00 | 0.00 | 86 | 1017.2 |
| 20260905234218 | 26 | 26 | 3.2 | 8.0 | 0.00 | 0.00 | 0.00 | 86 | 1017.2 |
| 20260905233713 | 27 | 350 | 1.6 | 4.8 | 0.00 | 0.00 | 0.00 | 85 | 1017.0 |
| 20260905233212 | 27 | 303 | 3.2 | 8.0 | 0.00 | 0.00 | 0.00 | 85 | 1017.2 |
| 20260905232707 | 27 | 38 | 4.8 | 9.7 | 0.00 | 0.00 | 0.00 | 85 | 1016.8 |
| 20260905232203 | 27 | 4 | 1.6 | 8.0 | 0.00 | 0.00 | 0.00 | 84 | 1017.0 |
| 20260905231659 | 27 | 306 | 1.6 | 3.2 | 0.00 | 0.00 | 0.00 | 84 | 1017.0 |
| 20260905231154 | 27 | 341 | 1.6 | 1.6 | 0.00 | 0.00 | 0.00 | 83 | 1017.0 |
| 20260905230650 | 27 | 8 | 1.6 | 8.0 | 0.00 | 0.00 | 0.00 | 84 | 1016.9 |
| 20260905230148 | 27 | 351 | 1.6 | 4.8 | 0.00 | 0.00 | 0.00 | 84 | 1017.0 |
| 20260905225647 | 27 | 349 | 3.2 | 4.8 | 0.00 | 0.00 | 0.00 | 84 | 1016.9 |
| 20260905225142 | 28 | 14 | 3.2 | 8.0 | 0.00 | 0.00 | 0.00 | 84 | 1017.0 |
| 20260905224641 | 28 | 308 | 1.6 | 3.2 | 0.00 | 0.00 | 0.00 | 83 | 1017.0 |
| 20260905224136 | 28 | 357 | 3.2 | 3.2 | 0.00 | 0.00 | 0.00 | 83 | 1017.0 |
| 20260905223633 | 28 | 325 | 3.2 | 8.0 | 0.00 | 0.00 | 0.00 | 83 | 1016.9 |
| 20260905223130 | 28 | 350 | 3.2 | 8.0 | 0.00 | 0.00 | 0.00 | 82 | 1016.9 |
| 20260905222625 | 28 | 353 | 1.6 | 1.6 | 0.00 | 0.00 | 0.00 | 82 | 1016.9 |
| 20260905222120 | 29 | 17 | 4.8 | 4.8 | 0.00 | 0.00 | 0.00 | 81 | 1016.8 |
| 20260905221615 | 29 | 30 | 8.0 | 12.9 | 0.00 | 0.00 | 0.00 | 80 | 1016.7 |
| 20260905221112 | 29 | 44 | 3.2 | 4.8 | 0.00 | 0.00 | 0.00 | 81 | 1017.0 |
| 20260905220607 | 29 | 347 | 6.4 | 9.7 | 0.00 | 0.00 | 0.00 | 81 | 1016.8 |
| 20260905220103 | 29 | 57 | 1.6 | 3.2 | 0.00 | 0.00 | 0.00 | 82 | 1016.5 |
| 20260905215602 | 28 | 310 | 4.8 | 9.7 | 0.00 | 0.00 | 0.00 | 83 | 1016.5 |
| 20260905215058 | 28 | 311 | 3.2 | 9.7 | 0.00 | 0.00 | 0.00 | 84 | 1016.5 |
| 20260905214554 | 28 | 18 | 4.8 | 8.0 | 0.00 | 0.00 | 0.00 | 84 | 1016.5 |
| 20260905214049 | 28 | 14 | 6.4 | 11.3 | 0.00 | 0.00 | 0.00 | 83 | 1016.5 |
| 20260905213544 | 29 | 7 | 9.7 | 12.9 | 0.00 | 0.00 | 0.00 | 82 | 1016.5 |
| 20260905213039 | 30 | 2 | 3.2 | 4.8 | 0.00 | 0.00 | 0.00 | 82 | 1016.4 |
| 20260905212534 | 30 | 1 | 3.2 | 3.2 | 0.00 | 0.00 | 0.00 | 82 | 1016.0 |
| 20260905212034 | 29 | 7 | 4.8 | 9.7 | 0.00 | 0.00 | 0.00 | 81 | 1016.2 |
| 20260905211529 | 30 | 15 | 6.4 | 11.3 | 0.00 | 0.00 | 0.00 | 80 | 1016.4 |
| 20260905211025 | 30 | 351 | 4.8 | 14.5 | 0.00 | 0.00 | 0.00 | 79 | 1016.2 |
| 20260905210520 | 31 | 10 | 4.8 | 11.3 | 0.00 | 0.00 | 0.00 | 77 | 1015.9 |
| 20260905210020 | 32 | 313 | 1.6 | 3.2 | 0.00 | 0.00 | 0.00 | 73 | 1016.3 |
| 20260905205514 | 32 | 315 | 3.2 | 4.8 | 0.00 | 0.00 | 0.00 | 71 | 1016.3 |
| 20260905205013 | 32 | 20 | 4.8 | 11.3 | 0.00 | 0.00 | 0.00 | 71 | 1016.3 |
| 20260905204508 | 33 | 285 | 0.0 | 1.6 | 0.00 | 0.00 | 0.00 | 70 | 1016.4 |
| 20260905204003 | 32 | 276 | 1.6 | 3.2 | 0.00 | 0.00 | 0.00 | 72 | 1016.4 |
| 20260905203458 | 32 | 256 | 3.2 | 4.8 | 0.00 | 0.00 | 0.00 | 74 | 1016.3 |
| 20260905202953 | 32 | 261 | 0.0 | 3.2 | 0.00 | 0.00 | 0.00 | 73 | 1016.4 |
| 20260905202448 | 32 | 252 | 1.6 | 3.2 | 0.00 | 0.00 | 0.00 | 74 | 1016.2 |
| 20260905201944 | 32 | 235 | 4.8 | 8.0 | 0.00 | 0.00 | 0.00 | 74 | 1016.3 |
| 20260905201439 | 32 | 246 | 4.8 | 4.8 | 0.00 | 0.00 | 0.00 | 70 | 1016.3 |
| 20260905200933 | 32 | 241 | 1.6 | 3.2 | 0.00 | 0.00 | 0.00 | 71 | 1016.5 |
| 20260905200429 | 32 | 238 | 4.8 | 4.8 | 0.00 | 0.00 | 0.00 | 72 | 1016.5 |
| 20260905195927 | 32 | 234 | 3.2 | 3.2 | 0.00 | 0.00 | 0.00 | 72 | 1016.6 |
| 20260905195422 | 32 | 240 | 6.4 | 9.7 | 0.00 | 0.00 | 0.00 | 72 | 1016.8 |
| 20260905194918 | 32 | 318 | 1.6 | 1.6 | 0.00 | 0.00 | 0.00 | 71 | 1016.6 |
| 20260905194417 | 33 | 231 | 1.6 | 3.2 | 0.00 | 0.00 | 0.00 | 71 | 1016.7 |
| 20260905193917 | 32 | 284 | 1.6 | 1.6 | 0.00 | 0.00 | 0.00 | 71 | 1017.0 |
| 20260905193412 | 32 | 257 | 1.6 | 1.6 | 0.00 | 0.00 | 0.00 | 73 | 1017.2 |
| 20260905192907 | 31 | 261 | 4.8 | 4.8 | 0.00 | 0.00 | 0.00 | 73 | 1017.0 |
| 20260905192403 | 31 | 263 | 1.6 | 3.2 | 0.00 | 0.00 | 0.00 | 75 | 1017.2 |
| 20260905191857 | 30 | 250 | 1.6 | 8.0 | 0.00 | 0.00 | 0.00 | 80 | 1017.1 |
| 20260905191356 | 28 | 254 | 3.2 | 3.2 | 0.00 | 0.00 | 0.00 | 83 | 1017.1 |
| 20260905190855 | 28 | 242 | 3.2 | 4.8 | 0.00 | 0.00 | 0.00 | 82 | 1017.2 |
| 20260905190348 | 28 | 236 | 3.2 | 4.8 | 0.00 | 0.00 | 0.00 | 82 | 1017.3 |
| 20260905185847 | 28 | 251 | 3.2 | 8.0 | 0.00 | 0.00 | 0.00 | 81 | 1017.3 |
| 20260905185343 | 29 | 248 | 3.2 | 4.8 | 0.00 | 0.00 | 0.00 | 79 | 1017.4 |
| 20260905184842 | 30 | 262 | 4.8 | 4.8 | 0.00 | 0.00 | 0.00 | 79 | 1017.3 |
| 20260905184341 | 30 | 246 | 1.6 | 4.8 | 0.00 | 0.00 | 0.00 | 76 | 1017.6 |
| 20260905183840 | 30 | 262 | 1.6 | 3.2 | 0.00 | 0.00 | 0.00 | 76 | 1017.5 |
| 20260905183335 | 30 | 277 | 1.6 | 1.6 | 0.00 | 0.00 | 0.00 | 76 | 1017.6 |
| 20260905182830 | 31 | 234 | 8.0 | 11.3 | 0.00 | 0.00 | 0.00 | 77 | 1017.4 |
| 20260905182329 | 30 | 239 | 8.0 | 9.7 | 0.00 | 0.00 | 0.00 | 76 | 1017.6 |
| 20260905181825 | 30 | 238 | 3.2 | 9.7 | 0.00 | 0.00 | 0.00 | 74 | 1017.4 |
| 20260905181325 | 30 | 244 | 8.0 | 11.3 | 0.00 | 0.00 | 0.00 | 75 | 1017.6 |
| 20260905180824 | 30 | 238 | 11.3 | 12.9 | 0.00 | 0.00 | 0.00 | 76 | 1017.5 |
| 20260905180319 | 30 | 204 | 9.7 | 11.3 | 0.00 | 0.00 | 0.00 | 77 | 1017.6 |
| 20260905175814 | 29 | 248 | 12.9 | 16.1 | 0.00 | 0.00 | 0.00 | 76 | 1017.6 |
| 20260905175308 | 29 | 258 | 8.0 | 11.3 | 0.00 | 0.00 | 0.00 | 78 | 1017.7 |
| 20260905174803 | 29 | 194 | 11.3 | 14.5 | 0.00 | 0.00 | 0.00 | 77 | 1017.9 |
| 20260905174259 | 29 | 269 | 11.3 | 12.9 | 0.00 | 0.00 | 0.00 | 77 | 1017.9 |
| 20260905173755 | 29 | 250 | 9.7 | 12.9 | 0.00 | 0.00 | 0.00 | 79 | 1018.1 |
| 20260905173251 | 28 | 233 | 9.7 | 11.3 | 0.00 | 0.00 | 0.00 | 79 | 1017.8 |
| 20260905172750 | 28 | 240 | 9.7 | 11.3 | 0.00 | 0.00 | 0.00 | 81 | 1018.2 |
| 20260905172249 | 28 | 221 | 8.0 | 11.3 | 0.00 | 0.00 | 0.00 | 79 | 1017.9 |
| 20260905171745 | 27 | 215 | 9.7 | 11.3 | 0.00 | 0.00 | 0.00 | 80 | 1018.4 |
| 20260905171242 | 27 | 233 | 11.3 | 14.5 | 0.00 | 0.00 | 0.00 | 78 | 1018.6 |
| 20260905170738 | 27 | 238 | 11.3 | 14.5 | 0.00 | 0.00 | 0.00 | 78 | 1018.5 |
| 20260905170233 | 27 | 247 | 14.5 | 14.5 | 0.00 | 0.00 | 0.00 | 78 | 1018.4 |
| 20260905165732 | 27 | 237 | 9.7 | 12.9 | 0.00 | 0.00 | 0.00 | 78 | 1018.5 |
| 20260905165228 | 28 | 252 | 8.0 | 11.3 | 0.00 | 0.00 | 0.00 | 82 | 1018.4 |
| 20260905164728 | 28 | 204 | 8.0 | 9.7 | 0.00 | 0.00 | 0.00 | 80 | 1018.7 |
| 20260905164223 | 27 | 179 | 8.0 | 12.9 | 0.00 | 0.00 | 0.00 | 79 | 1018.4 |
| 20260905163719 | 27 | 222 | 6.4 | 9.7 | 0.00 | 0.00 | 0.00 | 81 | 1018.7 |
| 20260905163215 | 27 | 221 | 9.7 | 11.3 | 0.00 | 0.00 | 0.00 | 81 | 1018.8 |
| 20260905162711 | 27 | 207 | 11.3 | 14.5 | 0.00 | 0.00 | 0.00 | 81 | 1018.8 |
| 20260905162210 | 26 | 212 | 9.7 | 11.3 | 0.00 | 0.00 | 0.00 | 81 | 1018.8 |
| 20260905161705 | 26 | 257 | 6.4 | 9.7 | 0.00 | 0.00 | 0.00 | 82 | 1018.7 |
| 20260905161203 | 26 | 242 | 9.7 | 12.9 | 0.00 | 0.00 | 0.00 | 81 | 1019.0 |
| 20260905160656 | 26 | 211 | 11.3 | 12.9 | 0.00 | 0.00 | 0.00 | 81 | 1018.8 |
| 20260905160155 | 26 | 244 | 9.7 | 12.9 | 0.00 | 0.00 | 0.00 | 81 | 1018.6 |
| 20260905155650 | 26 | 215 | 9.7 | 12.9 | 0.00 | 0.00 | 0.00 | 81 | 1018.7 |
| 20260905155149 | 26 | 228 | 9.7 | 14.5 | 0.00 | 0.00 | 0.00 | 82 | 1018.7 |
| 20260905154643 | 26 | 231 | 12.9 | 16.1 | 0.00 | 0.00 | 0.00 | 81 | 1018.8 |
| 20260905154139 | 26 | 239 | 9.7 | 12.9 | 0.00 | 0.00 | 0.00 | 82 | 1018.6 |
| 20260905153635 | 26 | 217 | 8.0 | 11.3 | 0.00 | 0.00 | 0.00 | 82 | 1018.5 |
| 20260905153130 | 26 | 191 | 9.7 | 16.1 | 0.00 | 0.00 | 0.00 | 81 | 1018.8 |
| 20260905152625 | 26 | 258 | 11.3 | 12.9 | 0.00 | 0.00 | 0.00 | 82 | 1018.5 |
| 20260905152120 | 26 | 231 | 11.3 | 17.7 | 0.00 | 0.00 | 0.00 | 82 | 1018.4 |
| 20260905151615 | 26 | 239 | 12.9 | 17.7 | 0.00 | 0.00 | 0.00 | 83 | 1018.2 |
| 20260905151111 | 25 | 199 | 11.3 | 16.1 | 0.00 | 0.00 | 0.00 | 84 | 1018.4 |
| 20260905150606 | 25 | 238 | 11.3 | 16.1 | 0.00 | 0.00 | 0.00 | 83 | 1018.5 |
| 20260905150104 | 25 | 202 | 9.7 | 11.3 | 0.00 | 0.00 | 0.00 | 86 | 1018.4 |
| 20260905145603 | 25 | 223 | 9.7 | 12.9 | 0.00 | 0.00 | 0.00 | 85 | 1018.9 |
| 20260905145102 | 24 | 221 | 14.5 | 16.1 | 0.00 | 0.00 | 0.00 | 85 | 1019.0 |
| 20260905144557 | 24 | 222 | 16.1 | 22.5 | 0.00 | 0.00 | 0.00 | 85 | 1018.7 |
| 20260905144056 | 25 | 229 | 11.3 | 17.7 | 0.00 | 0.00 | 0.00 | 86 | 1018.7 |
| 20260905143555 | 24 | 214 | 12.9 | 17.7 | 0.00 | 0.00 | 0.00 | 86 | 1018.7 |
| 20260905143051 | 23 | 198 | 9.7 | 12.9 | 0.00 | 0.00 | 0.00 | 87 | 1018.7 |
| 20260905142549 | 23 | 233 | 8.0 | 11.3 | 0.00 | 0.00 | 0.00 | 88 | 1018.5 |
| 20260905142044 | 23 | 220 | 12.9 | 16.1 | 0.00 | 0.00 | 0.00 | 87 | 1018.5 |
| 20260905141539 | 23 | 207 | 8.0 | 11.3 | 0.00 | 0.00 | 0.00 | 87 | 1018.5 |
| 20260905141035 | 23 | 219 | 8.0 | 11.3 | 0.00 | 0.00 | 0.00 | 87 | 1018.6 |
| 20260905140530 | 23 | 182 | 8.0 | 11.3 | 0.00 | 0.00 | 0.00 | 88 | 1018.4 |
| 20260905140029 | 23 | 213 | 14.5 | 14.5 | 0.00 | 0.00 | 0.00 | 88 | 1018.2 |
| 20260905135525 | 23 | 229 | 11.3 | 14.5 | 0.00 | 0.00 | 0.00 | 89 | 1018.2 |
| 20260905135019 | 22 | 211 | 8.0 | 16.1 | 0.00 | 0.00 | 0.00 | 89 | 1018.1 |
| 20260905134514 | 22 | 227 | 8.0 | 11.3 | 0.00 | 0.00 | 0.00 | 90 | 1018.2 |
| 20260905134013 | 22 | 223 | 11.3 | 20.9 | 0.00 | 0.00 | 0.00 | 90 | 1018.3 |
| 20260905133508 | 22 | 222 | 12.9 | 14.5 | 0.00 | 0.00 | 0.00 | 90 | 1018.1 |
| 20260905133002 | 22 | 221 | 8.0 | 11.3 | 0.00 | 0.00 | 0.00 | 90 | 1017.9 |
| 20260905132457 | 22 | 203 | 11.3 | 17.7 | 0.00 | 0.00 | 0.00 | 90 | 1018.2 |
| 20260905131951 | 22 | 207 | 14.5 | 17.7 | 0.00 | 0.00 | 0.00 | 90 | 1018.3 |
| 20260905131447 | 22 | 209 | 8.0 | 14.5 | 0.00 | 0.00 | 0.00 | 91 | 1018.5 |
| 20260905130948 | 22 | 227 | 9.7 | 16.1 | 0.00 | 0.00 | 0.00 | 91 | 1018.6 |
| 20260905130442 | 22 | 210 | 8.0 | 12.9 | 0.00 | 0.00 | 0.00 | 91 | 1018.6 |
| 20260905125941 | 21 | 212 | 12.9 | 12.9 | 0.00 | 0.00 | 0.00 | 91 | 1018.6 |
| 20260905125436 | 21 | 203 | 4.8 | 11.3 | 0.00 | 0.00 | 0.00 | 92 | 1018.7 |
| 20260905124932 | 21 | 196 | 4.8 | 12.9 | 0.00 | 0.00 | 0.00 | 92 | 1018.7 |
| 20260905124428 | 21 | 181 | 4.8 | 9.7 | 0.00 | 0.00 | 0.00 | 93 | 1018.5 |
| 20260905123928 | 21 | 207 | 9.7 | 12.9 | 0.00 | 0.00 | 0.00 | 93 | 1018.5 |
| 20260905123425 | 21 | 207 | 6.4 | 9.7 | 0.00 | 0.00 | 0.00 | 93 | 1018.5 |
| 20260905122920 | 21 | 192 | 0.0 | 9.7 | 0.00 | 0.00 | 0.00 | 93 | 1018.6 |
| 20260905122419 | 21 | 204 | 6.4 | 9.7 | 0.00 | 0.00 | 0.00 | 93 | 1018.4 |
| 20260905121915 | 21 | 201 | 3.2 | 4.8 | 0.00 | 0.00 | 0.00 | 94 | 1018.5 |
| 20260905121411 | 21 | 246 | 1.6 | 3.2 | 0.00 | 0.00 | 0.00 | 94 | 1018.5 |
| 20260905120909 | 21 | 188 | 0.0 | 9.7 | 0.00 | 0.00 | 0.00 | 94 | 1018.6 |
| 20260905120404 | 21 | 187 | 0.0 | 1.6 | 0.00 | 0.00 | 0.00 | 94 | 1018.4 |
| 20260905115859 | 20 | 191 | 8.0 | 9.7 | 0.00 | 0.00 | 0.00 | 95 | 1018.7 |
| 20260905115358 | 20 | 205 | 0.0 | 3.2 | 0.00 | 0.00 | 0.00 | 95 | 1018.7 |
| 20260905114853 | 20 | 214 | 1.6 | 4.8 | 0.00 | 0.00 | 0.00 | 95 | 1018.5 |
| 20260905114352 | 20 | 202 | 1.6 | 4.8 | 0.00 | 0.00 | 0.00 | 95 | 1018.6 |
| 20260905113846 | 20 | 206 | 0.0 | 4.8 | 0.00 | 0.00 | 0.00 | 95 | 1018.5 |
| 20260905113341 | 20 | 167 | 0.0 | 8.0 | 0.00 | 0.00 | 0.00 | 95 | 1018.3 |
| 20260905112837 | 20 | 228 | 4.8 | 8.0 | 0.00 | 0.00 | 0.00 | 95 | 1018.1 |
| 20260905112331 | 20 | 141 | 1.6 | 9.7 | 0.00 | 0.00 | 0.00 | 95 | 1018.4 |
| 20260905111827 | 20 | 112 | 3.2 | 3.2 | 0.00 | 0.00 | 0.00 | 94 | 1018.3 |
| 20260905111321 | 21 | 218 | 1.6 | 3.2 | 0.00 | 0.00 | 0.00 | 94 | 1018.3 |
| 20260905110820 | 21 | 77 | 3.2 | 4.8 | 0.00 | 0.00 | 0.00 | 94 | 1018.5 |
| 20260905110314 | 21 | 144 | 0.0 | 1.6 | 0.00 | 0.00 | 0.00 | 94 | 1018.3 |
| 20260905105810 | 21 | 139 | 4.8 | 8.0 | 0.00 | 0.00 | 0.00 | 94 | 1018.2 |
| 20260905105309 | 22 | 127 | 6.4 | 8.0 | 0.00 | 0.00 | 0.00 | 95 | 1018.3 |
| 20260905104803 | 22 | 109 | 4.8 | 9.7 | 0.00 | 0.00 | 0.00 | 95 | 1018.1 |
| 20260905104300 | 23 | 106 | 4.8 | 4.8 | 0.00 | 0.00 | 0.00 | 96 | 1018.1 |
| 20260905103759 | 23 | 107 | 4.8 | 4.8 | 0.00 | 0.00 | 0.00 | 96 | 1017.9 |
| 20260905103255 | 23 | 92 | 4.8 | 4.8 | 0.00 | 0.00 | 0.00 | 98 | 1017.9 |
| 20260905102750 | 22 | 86 | 4.8 | 8.0 | 0.00 | 0.00 | 0.00 | 98 | 1017.8 |
| 20260905102247 | 22 | 159 | 0.0 | 3.2 | 0.00 | 0.00 | 0.00 | 97 | 1017.9 |
| 20260905101746 | 22 | 229 | 0.0 | 0.0 | 0.00 | 0.00 | 0.00 | 97 | 1017.6 |
| 20260905101245 | 22 | 229 | 0.0 | 0.0 | 0.00 | 0.00 | 0.00 | 97 | 1017.5 |
| 20260905100740 | 23 | 229 | 0.0 | 0.0 | 0.00 | 0.00 | 0.00 | 96 | 1017.4 |
| 20260905100236 | 23 | 229 | 0.0 | 0.0 | 0.00 | 0.00 | 0.00 | 96 | 1017.4 |
| 20260905095736 | 23 | 230 | 0.0 | 1.6 | 0.00 | 0.00 | 0.00 | 96 | 1017.6 |
| 20260905095235 | 23 | 234 | 0.0 | 1.6 | 0.00 | 0.00 | 0.00 | 96 | 1017.6 |
| 20260905094730 | 23 | 234 | 0.0 | 1.6 | 0.00 | 0.00 | 0.00 | 96 | 1017.3 |
| 20260905094225 | 23 | 235 | 1.6 | 1.6 | 0.00 | 0.00 | 0.00 | 96 | 1017.4 |
| 20260905093725 | 23 | 235 | 1.6 | 1.6 | 0.00 | 0.00 | 0.00 | 96 | 1017.4 |
| 20260905093221 | 23 | 235 | 1.6 | 1.6 | 0.00 | 0.00 | 0.00 | 96 | 1017.2 |
| 20260905092716 | 23 | 238 | 1.6 | 1.6 | 0.00 | 0.00 | 0.00 | 96 | 1017.4 |
| 20260905092211 | 23 | 233 | 1.6 | 3.2 | 0.00 | 0.00 | 0.00 | 96 | 1017.5 |
| 20260905091711 | 23 | 225 | 1.6 | 1.6 | 0.00 | 0.00 | 0.00 | 97 | 1017.6 |
| 20260905091206 | 23 | 218 | 0.0 | 1.6 | 0.00 | 0.00 | 0.00 | 97 | 1017.6 |
| 20260905090705 | 23 | 214 | 1.6 | 3.2 | 0.00 | 0.00 | 0.00 | 97 | 1017.5 |
| 20260905090201 | 23 | 243 | 1.6 | 3.2 | 0.00 | 0.00 | 0.00 | 96 | 1017.2 |
| 20260905085700 | 23 | 243 | 1.6 | 1.6 | 0.00 | 0.00 | 0.00 | 96 | 1017.5 |
| 20260905085155 | 23 | 243 | 0.0 | 0.0 | 0.00 | 0.00 | 0.00 | 96 | 1017.6 |
| 20260905084654 | 23 | 243 | 0.0 | 0.0 | 0.00 | 0.00 | 0.00 | 96 | 1017.5 |
| 20260905084149 | 23 | 243 | 0.0 | 0.0 | 0.00 | 0.00 | 0.00 | 96 | 1017.5 |
| 20260905083644 | 23 | 243 | 0.0 | 1.6 | 0.00 | 0.00 | 0.00 | 96 | 1017.3 |
| 20260905083141 | 23 | 243 | 0.0 | 0.0 | 0.00 | 0.00 | 0.00 | 95 | 1017.4 |
| 20260905082636 | 23 | 244 | 1.6 | 3.2 | 0.00 | 0.00 | 0.00 | 95 | 1017.4 |
| 20260905082131 | 23 | 244 | 0.0 | 1.6 | 0.00 | 0.00 | 0.00 | 95 | 1017.2 |
| 20260905081626 | 24 | 236 | 4.8 | 4.8 | 0.00 | 0.00 | 0.00 | 94 | 1017.5 |
| 20260905081126 | 24 | 242 | 0.0 | 1.6 | 0.00 | 0.00 | 0.00 | 94 | 1017.5 |
| 20260905080621 | 24 | 238 | 3.2 | 3.2 | 0.00 | 0.00 | 0.00 | 94 | 1017.4 |
| 20260905080115 | 24 | 230 | 3.2 | 3.2 | 0.00 | 0.00 | 0.00 | 94 | 1017.2 |
| 20260905075614 | 24 | 228 | 1.6 | 3.2 | 0.00 | 0.00 | 0.00 | 95 | 1017.2 |
| 20260905075108 | 23 | 214 | 3.2 | 3.2 | 0.00 | 0.00 | 0.00 | 95 | 1017.2 |
| 20260905074607 | 24 | 213 | 3.2 | 3.2 | 0.00 | 0.00 | 0.00 | 95 | 1017.2 |
| 20260905074103 | 23 | 208 | 3.2 | 3.2 | 0.00 | 0.00 | 0.00 | 95 | 1017.1 |
| 20260905073558 | 23 | 231 | 1.6 | 1.6 | 0.00 | 0.00 | 0.00 | 95 | 1017.0 |
| 20260905073054 | 23 | 245 | 1.6 | 1.6 | 0.00 | 0.00 | 0.00 | 96 | 1016.9 |
| 20260905072553 | 23 | 250 | 0.0 | 1.6 | 0.00 | 0.00 | 0.00 | 95 | 1016.9 |
| 20260905072049 | 24 | 251 | 0.0 | 0.0 | 0.00 | 0.00 | 0.00 | 95 | 1016.9 |
| 20260905071546 | 24 | 251 | 0.0 | 0.0 | 0.00 | 0.00 | 0.00 | 95 | 1016.7 |
| 20260905071040 | 24 | 251 | 1.6 | 1.6 | 0.00 | 0.00 | 0.00 | 95 | 1016.9 |
| 20260905070536 | 24 | 249 | 1.6 | 3.2 | 0.00 | 0.00 | 0.00 | 95 | 1016.7 |
| 20260905070032 | 24 | 259 | 3.2 | 3.2 | 0.00 | 0.00 | 0.00 | 95 | 1016.4 |
| 20260905065529 | 24 | 252 | 3.2 | 4.8 | 0.00 | 0.00 | 0.00 | 96 | 1016.6 |
| 20260905065024 | 24 | 246 | 3.2 | 4.8 | 0.00 | 0.00 | 0.00 | 96 | 1016.5 |
| 20260905064519 | 24 | 244 | 3.2 | 3.2 | 0.00 | 0.00 | 0.00 | 96 | 1016.5 |
| 20260905064015 | 24 | 239 | 3.2 | 3.2 | 0.00 | 0.00 | 0.00 | 96 | 1016.6 |
| 20260905063513 | 24 | 236 | 3.2 | 3.2 | 0.00 | 0.00 | 0.00 | 96 | 1016.8 |
| 20260905063009 | 24 | 238 | 3.2 | 3.2 | 0.00 | 0.00 | 0.00 | 95 | 1017.1 |
| 20260905061655 | 24 | 238 | 3.2 | 3.2 | 0.00 | 0.00 | 0.00 | 95 | 1017.5 |
| 20260905061150 | 24 | 238 | 3.2 | 3.2 | 0.00 | 0.00 | 0.00 | 95 | 1017.5 |
| 20260905060646 | 24 | 231 | 3.2 | 3.2 | 0.00 | 0.00 | 0.00 | 95 | 1017.5 |
| 20260905060142 | 24 | 228 | 3.2 | 3.2 | 0.00 | 0.00 | 0.00 | 95 | 1017.5 |
| 20260905055640 | 24 | 222 | 3.2 | 3.2 | 0.00 | 0.00 | 0.00 | 95 | 1017.7 |
| 20260905055136 | 24 | 230 | 1.6 | 3.2 | 0.00 | 0.00 | 0.00 | 95 | 1017.4 |
| 20260905054632 | 24 | 231 | 3.2 | 3.2 | 0.00 | 0.00 | 0.00 | 96 | 1017.5 |
| 20260905054127 | 24 | 228 | 1.6 | 3.2 | 0.00 | 0.00 | 0.00 | 97 | 1017.6 |
| 20260905053627 | 23 | 220 | 1.6 | 3.2 | 0.00 | 0.00 | 0.00 | 97 | 1017.7 |
| 20260905053122 | 23 | 238 | 3.2 | 3.2 | 0.00 | 0.00 | 0.00 | 97 | 1017.6 |
| 20260905052621 | 23 | 239 | 3.2 | 3.2 | 0.00 | 0.00 | 0.00 | 97 | 1017.6 |
| 20260905052115 | 23 | 227 | 1.6 | 1.6 | 0.00 | 0.00 | 0.00 | 97 | 1017.6 |
| 20260905051611 | 23 | 223 | 0.0 | 0.0 | 0.00 | 0.00 | 0.00 | 97 | 1017.7 |
| 20260905051108 | 23 | 223 | 0.0 | 1.6 | 0.00 | 0.00 | 0.00 | 97 | 1017.7 |
| 20260905050603 | 23 | 213 | 1.6 | 1.6 | 0.00 | 0.00 | 0.00 | 96 | 1017.6 |
| 20260905050055 | 24 | 213 | 1.6 | 1.6 | 0.00 | 0.00 | 0.00 | 96 | 1018.0 |
| 20260905045554 | 24 | 211 | 0.0 | 0.0 | 0.00 | 0.00 | 0.00 | 96 | 1017.8 |
| 20260905045050 | 24 | 211 | 0.0 | 0.0 | 0.00 | 0.00 | 0.00 | 95 | 1017.8 |
| 20260905044549 | 24 | 212 | 0.0 | 0.0 | 0.00 | 0.00 | 0.00 | 95 | 1018.0 |
| 20260905044044 | 25 | 213 | 0.0 | 0.0 | 0.00 | 0.00 | 0.00 | 95 | 1018.3 |
| 20260905043543 | 25 | 213 | 0.0 | 0.0 | 0.00 | 0.00 | 0.00 | 95 | 1018.0 |
| 20260905043039 | 24 | 213 | 1.6 | 1.6 | 0.00 | 0.00 | 0.00 | 95 | 1018.0 |
| 20260905042537 | 24 | 204 | 0.0 | 0.0 | 0.00 | 0.00 | 0.00 | 95 | 1018.0 |
| 20260905042033 | 25 | 199 | 0.0 | 0.0 | 0.00 | 0.00 | 0.00 | 94 | 1017.9 |
| 20260905041528 | 25 | 210 | 0.0 | 0.0 | 0.00 | 0.00 | 0.00 | 94 | 1018.1 |
| 20260905041024 | 25 | 211 | 0.0 | 0.0 | 0.00 | 0.00 | 0.00 | 93 | 1018.0 |
| 20260905040523 | 25 | 211 | 0.0 | 0.0 | 0.00 | 0.00 | 0.00 | 92 | 1018.0 |
| 20260905040022 | 25 | 211 | 0.0 | 0.0 | 0.00 | 0.00 | 0.00 | 92 | 1018.2 |
| 20260905035517 | 25 | 206 | 0.0 | 0.0 | 0.00 | 0.00 | 0.00 | 93 | 1018.0 |
| 20260905035014 | 25 | 205 | 0.0 | 0.0 | 0.00 | 0.00 | 0.00 | 92 | 1018.3 |
| 20260905034510 | 25 | 201 | 1.6 | 1.6 | 0.00 | 0.00 | 0.00 | 92 | 1018.4 |
| 20260905034009 | 25 | 212 | 1.6 | 1.6 | 0.00 | 0.00 | 0.00 | 92 | 1018.4 |
| 20260905033503 | 25 | 213 | 0.0 | 0.0 | 0.00 | 0.00 | 0.00 | 92 | 1018.3 |
| 20260905032958 | 26 | 226 | 0.0 | 0.0 | 0.00 | 0.00 | 0.00 | 92 | 1018.3 |
| 20260905032454 | 26 | 226 | 0.0 | 0.0 | 0.00 | 0.00 | 0.00 | 90 | 1018.4 |
| 20260905031948 | 26 | 226 | 0.0 | 0.0 | 0.00 | 0.00 | 0.00 | 90 | 1018.3 |
| 20260905031444 | 26 | 231 | 1.6 | 3.2 | 0.00 | 0.00 | 0.00 | 90 | 1018.1 |
| 20260905030939 | 26 | 231 | 1.6 | 3.2 | 0.00 | 0.00 | 0.00 | 90 | 1018.1 |
| 20260905030434 | 26 | 238 | 1.6 | 3.2 | 0.00 | 0.00 | 0.00 | 89 | 1018.3 |
| 20260905025933 | 26 | 231 | 3.2 | 3.2 | 0.00 | 0.00 | 0.00 | 89 | 1018.3 |
| 20260905025429 | 26 | 225 | 1.6 | 3.2 | 0.00 | 0.00 | 0.00 | 90 | 1018.2 |
| 20260905024926 | 26 | 217 | 1.6 | 1.6 | 0.00 | 0.00 | 0.00 | 91 | 1018.1 |
| 20260905024425 | 26 | 213 | 1.6 | 1.6 | 0.00 | 0.00 | 0.00 | 91 | 1018.1 |
| 20260905023921 | 26 | 211 | 1.6 | 1.6 | 0.00 | 0.00 | 0.00 | 92 | 1018.2 |
| 20260905023416 | 26 | 204 | 1.6 | 1.6 | 0.00 | 0.00 | 0.00 | 92 | 1018.1 |
| 20260905022915 | 26 | 211 | 1.6 | 1.6 | 0.00 | 0.00 | 0.00 | 92 | 1018.1 |
| 20260905022410 | 27 | 209 | 1.6 | 1.6 | 0.00 | 0.00 | 0.00 | 92 | 1017.9 |
| 20260905021906 | 27 | 210 | 0.0 | 1.6 | 0.00 | 0.00 | 0.00 | 92 | 1017.9 |
| 20260905021400 | 27 | 209 | 1.6 | 1.6 | 0.00 | 0.00 | 0.00 | 92 | 1018.0 |
| 20260905020855 | 27 | 197 | 0.0 | 1.6 | 0.00 | 0.00 | 0.00 | 93 | 1018.1 |
| 20260905020349 | 26 | 197 | 1.6 | 1.6 | 0.00 | 0.00 | 0.00 | 93 | 1018.0 |
| 20260905015844 | 26 | 196 | 1.6 | 1.6 | 0.00 | 0.00 | 0.00 | 95 | 1018.0 |
| 20260905015342 | 26 | 196 | 1.6 | 1.6 | 0.00 | 0.00 | 0.00 | 95 | 1018.1 |
| 20260905014837 | 26 | 196 | 1.6 | 1.6 | 0.00 | 0.00 | 0.00 | 96 | 1018.1 |
| 20260905014333 | 26 | 196 | 1.6 | 1.6 | 0.00 | 0.00 | 0.00 | 97 | 1017.7 |
| 20260905013827 | 26 | 148 | 0.0 | 1.6 | 0.00 | 0.00 | 0.00 | 97 | 1017.7 |
| 20260905013324 | 26 | 147 | 0.0 | 1.6 | 0.00 | 0.00 | 0.00 | 97 | 1017.7 |
| 20260905012819 | 26 | 147 | 0.0 | 0.0 | 0.00 | 0.00 | 0.00 | 97 | 1017.9 |
| 20260905012314 | 26 | 147 | 0.0 | 0.0 | 0.00 | 0.00 | 0.00 | 97 | 1017.8 |
| 20260905011811 | 26 | 147 | 0.0 | 1.6 | 0.00 | 0.00 | 0.00 | 97 | 1017.8 |
| 20260905011306 | 26 | 148 | 0.0 | 0.0 | 0.00 | 0.00 | 0.00 | 96 | 1017.7 |
| 20260905010801 | 27 | 147 | 0.0 | 0.0 | 0.00 | 0.00 | 0.00 | 96 | 1017.6 |
| 20260905010256 | 27 | 147 | 0.0 | 0.0 | 0.00 | 0.00 | 0.00 | 96 | 1017.6 |
| 20260905005753 | 27 | 147 | 0.0 | 0.0 | 0.00 | 0.00 | 0.00 | 95 | 1017.5 |
| 20260905005253 | 27 | 147 | 0.0 | 0.0 | 0.00 | 0.00 | 0.00 | 95 | 1017.7 |
| 20260905004753 | 27 | 147 | 0.0 | 0.0 | 0.00 | 0.00 | 0.00 | 95 | 1017.6 |
| 20260905004247 | 27 | 147 | 0.0 | 1.6 | 0.00 | 0.00 | 0.00 | 95 | 1017.6 |